createdAt,value
2023-02-24T00:04:51.962Z,1.30
2023-02-24T00:09:53.806Z,1.37
2023-02-24T00:14:55.583Z,1.47
2023-02-24T00:19:57.851Z,1.59
2023-02-24T00:25:02.816Z,1.69
2023-02-24T00:30:06.417Z,1.77
2023-02-24T00:35:09.342Z,1.87
2023-02-24T00:40:12.192Z,2.01
2023-02-24T00:45:16.818Z,2.13
2023-02-24T00:50:18.686Z,2.24
2023-02-24T00:55:22.395Z,2.33
2023-02-24T01:00:24.288Z,2.41
2023-02-24T01:05:29.696Z,2.50
2023-02-24T01:10:34.534Z,2.63
2023-02-24T01:15:36.205Z,2.79
2023-02-24T01:20:38.556Z,2.96
2023-02-24T01:25:47.275Z,3.15
2023-02-24T01:30:49.556Z,3.29
2023-02-24T01:35:51.089Z,3.40
2023-02-24T01:40:58.138Z,3.49
2023-02-24T01:45:59.759Z,3.57
2023-02-24T01:51:01.928Z,3.65
2023-02-24T01:56:04.391Z,3.71
2023-02-24T02:01:09.852Z,3.77
2023-02-24T02:06:15.833Z,3.82
2023-02-24T02:11:20.992Z,3.89
2023-02-24T02:21:19.059Z,4.10
2023-02-24T02:26:36.077Z,4.14
2023-02-24T02:32:11.531Z,4.19
2023-02-24T02:37:25.181Z,4.21
2023-02-24T02:42:41.119Z,4.18
2023-02-24T02:47:54.081Z,4.15
2023-02-24T02:53:01.019Z,4.15
2023-02-24T02:58:09.313Z,4.16
2023-02-24T03:03:15.208Z,4.18
2023-02-24T03:08:22.989Z,4.21
2023-02-24T03:13:25.850Z,4.26
2023-02-24T03:18:33.631Z,4.34
2023-02-24T03:23:41.112Z,4.43
2023-02-24T03:28:52.975Z,4.56
2023-02-24T03:34:08.264Z,4.65
2023-02-24T03:39:12.592Z,4.68
2023-02-24T03:44:14.929Z,4.73
2023-02-24T03:49:16.979Z,4.77
2023-02-24T03:55:06.263Z,4.81
2023-02-24T04:00:35.428Z,4.80
2023-02-24T04:05:47.664Z,4.76
2023-02-24T04:11:05.722Z,4.75
2023-02-24T04:16:28.146Z,4.78
2023-02-24T04:21:32.270Z,4.79
2023-02-24T04:26:36.656Z,4.80
2023-02-24T04:31:39.489Z,4.85
2023-02-24T04:36:41.264Z,4.86
2023-02-24T04:41:43.470Z,4.82
2023-02-24T04:46:46.571Z,4.82
2023-02-24T04:51:48.764Z,4.84
2023-02-24T04:56:52.163Z,4.88
2023-02-24T05:01:53.756Z,4.92
2023-02-24T05:06:57.463Z,4.97
2023-02-24T05:12:00.405Z,5.00
2023-02-24T05:17:02.238Z,5.03
2023-02-24T05:22:07.062Z,5.07
2023-02-24T05:27:09.808Z,5.15
2023-02-24T05:32:11.463Z,5.19
2023-02-24T05:37:16.577Z,5.20
2023-02-24T05:42:19.501Z,5.17
2023-02-24T05:47:23.440Z,5.22
2023-02-24T05:52:25.487Z,5.27
2023-02-24T05:57:33.108Z,5.32
2023-02-24T06:02:38.050Z,5.40
2023-02-24T06:07:40.017Z,5.48
2023-02-24T06:12:41.748Z,5.50
2023-02-24T06:17:45.162Z,5.50
2023-02-24T06:22:47.188Z,5.54
2023-02-24T06:27:53.688Z,5.60
2023-02-24T06:32:56.869Z,5.66
2023-02-24T06:37:59.060Z,5.71
2023-02-24T06:43:00.625Z,5.78
2023-02-24T06:48:03.579Z,5.85
2023-02-24T06:53:10.006Z,5.93
2023-02-24T06:58:16.843Z,5.99
2023-02-24T07:03:18.392Z,6.05
2023-02-24T07:08:23.168Z,6.14
2023-02-24T07:13:26.775Z,6.19
2023-02-24T07:18:31.436Z,6.23
2023-02-24T07:23:33.073Z,6.34
2023-02-24T07:28:34.696Z,6.46
2023-02-24T07:33:38.178Z,6.62
2023-02-24T07:38:40.940Z,6.72
2023-02-24T07:43:44.237Z,6.74
2023-02-24T07:48:46.600Z,6.79
2023-02-24T07:53:52.306Z,6.80
2023-02-24T07:58:59.752Z,6.84
2023-02-24T08:04:01.478Z,6.83
2023-02-24T08:09:19.085Z,6.80
2023-02-24T08:14:27.722Z,6.79
2023-02-24T08:19:39.812Z,6.80
2023-02-24T08:24:43.989Z,6.85
2023-02-24T08:30:04.088Z,6.90
2023-02-24T08:35:14.634Z,6.96
2023-02-24T08:40:32.112Z,7.05
2023-02-24T08:45:33.679Z,7.04
2023-02-24T08:50:39.496Z,7.04
2023-02-24T08:55:41.091Z,7.06
2023-02-24T09:00:53.787Z,7.17
2023-02-24T09:06:00.164Z,7.26
2023-02-24T09:11:07.880Z,7.31
2023-02-24T09:16:16.653Z,7.34
2023-02-24T09:21:37.153Z,7.33
2023-02-24T09:26:44.756Z,7.30
2023-02-24T09:31:55.504Z,7.32
2023-02-24T09:37:03.606Z,7.32
2023-02-24T09:42:12.810Z,7.38
2023-02-24T09:47:49.279Z,7.51
2023-02-24T09:53:00.064Z,7.57
2023-02-24T09:58:34.849Z,7.68
2023-02-24T10:03:48.615Z,7.84
2023-02-24T10:09:12.869Z,7.88
2023-02-24T10:14:19.562Z,7.83
2023-02-24T10:19:34.290Z,7.78
2023-02-24T10:24:47.614Z,7.72
2023-02-24T10:30:05.722Z,7.70
2023-02-24T10:35:19.966Z,7.69
2023-02-24T10:40:44.575Z,7.71
2023-02-24T10:45:48.115Z,7.65
2023-02-24T10:50:56.169Z,7.60
2023-02-24T10:56:26.649Z,7.59
2023-02-24T11:01:54.930Z,7.57
2023-02-24T11:07:10.702Z,7.54
2023-02-24T11:12:45.262Z,7.46
2023-02-24T11:17:59.659Z,7.39
2023-02-24T11:23:08.661Z,7.35
2023-02-24T11:28:49.849Z,7.32
2023-02-24T11:34:01.294Z,7.34
2023-02-24T11:39:18.907Z,7.32
2023-02-24T11:44:28.921Z,7.29
2023-02-24T11:49:41.759Z,7.35
2023-02-24T11:54:50.567Z,7.55
2023-02-24T12:00:04.998Z,7.77
2023-02-24T12:05:47.180Z,7.76
2023-02-24T12:10:59.087Z,7.76
2023-02-24T12:16:10.471Z,7.89
2023-02-24T12:21:23.801Z,7.89
2023-02-24T12:26:29.950Z,7.81
2023-02-24T12:32:16.056Z,7.69
2023-02-24T12:37:40.944Z,7.65
2023-02-24T12:43:18.101Z,7.79
2023-02-24T12:48:53.923Z,8.01
2023-02-24T12:54:02.259Z,8.74
2023-02-24T12:59:07.477Z,10.03
2023-02-24T13:04:21.602Z,12.02
2023-02-24T13:09:43.626Z,10.99
2023-02-24T13:14:46.437Z,10.04
2023-02-24T13:19:49.747Z,9.26
2023-02-24T13:24:54.495Z,9.62
2023-02-24T13:30:01.174Z,10.71
2023-02-24T13:35:23.017Z,10.11
2023-02-24T13:40:29.012Z,9.31
2023-02-24T13:45:41.892Z,8.91
2023-02-24T13:51:19.437Z,8.80
2023-02-24T13:56:31.413Z,8.81
2023-02-24T14:01:47.046Z,8.89
2023-02-24T14:06:55.592Z,9.13
2023-02-24T14:12:05.624Z,9.29
2023-02-24T14:17:19.080Z,9.33
2023-02-24T14:22:21.777Z,9.42
2023-02-24T14:27:27.079Z,9.50
2023-02-24T14:32:29.524Z,9.75
2023-02-24T14:37:33.220Z,9.61
2023-02-24T14:42:36.368Z,9.28
2023-02-24T14:47:41.876Z,8.99
2023-02-24T14:53:06.604Z,8.57
2023-02-24T14:58:27.124Z,8.24
2023-02-24T15:03:36.811Z,8.05
2023-02-24T15:08:44.102Z,7.94
2023-02-24T15:14:26.843Z,7.90
2023-02-24T15:19:44.670Z,7.74
2023-02-24T15:24:46.480Z,7.61
2023-02-24T15:30:01.189Z,7.52
2023-02-24T15:35:04.480Z,7.42
2023-02-24T15:40:20.816Z,7.30
2023-02-24T15:45:32.532Z,7.19
2023-02-24T15:50:34.306Z,7.19
2023-02-24T15:55:36.176Z,7.13
2023-02-24T16:00:37.830Z,6.99
2023-02-24T16:05:40.313Z,6.92
2023-02-24T16:10:41.973Z,6.89
2023-02-24T16:15:45.568Z,6.78
2023-02-24T16:20:54.371Z,6.69
2023-02-24T16:26:00.095Z,6.65
2023-02-24T16:31:02.520Z,6.64
2023-02-24T16:36:11.069Z,6.59
2023-02-24T16:41:13.125Z,6.48
2023-02-24T16:46:19.001Z,6.41
2023-02-24T16:51:22.510Z,6.36
2023-02-24T16:56:24.434Z,6.36
2023-02-24T17:01:26.418Z,6.32
2023-02-24T17:06:29.274Z,6.23
2023-02-24T17:11:31.527Z,6.19
2023-02-24T17:16:33.127Z,6.11
2023-02-24T17:21:35.539Z,5.99
2023-02-24T17:26:37.405Z,5.83
2023-02-24T17:31:39.285Z,5.71
2023-02-24T17:36:41.195Z,5.58
2023-02-24T17:41:42.765Z,5.46
2023-02-24T17:46:44.665Z,5.36
2023-02-24T17:51:46.637Z,5.26
2023-02-24T17:56:48.278Z,5.26
2023-02-24T18:01:50.191Z,5.20
2023-02-24T18:06:51.749Z,5.12
2023-02-24T18:11:54.229Z,5.17
2023-02-24T18:16:55.803Z,5.19
2023-02-24T18:21:57.525Z,5.28
2023-02-24T18:26:59.260Z,5.30
2023-02-24T18:32:01.312Z,5.24
2023-02-24T18:37:03.363Z,5.19
2023-02-24T18:42:05.043Z,5.20
2023-02-24T18:47:09.752Z,5.24
2023-02-24T18:52:13.089Z,5.32
2023-02-24T18:57:15.059Z,5.34
2023-02-24T19:02:17.073Z,5.23
2023-02-24T19:07:19.457Z,5.13
2023-02-24T19:12:21.480Z,5.00
2023-02-24T19:17:23.902Z,4.93
2023-02-24T19:22:25.577Z,4.92
2023-02-24T19:27:28.685Z,4.95
2023-02-24T19:32:30.571Z,4.91
2023-02-24T19:37:32.995Z,4.84
2023-02-24T19:42:35.347Z,4.73
2023-02-24T19:47:37.497Z,4.59
2023-02-24T19:52:40.986Z,4.52
2023-02-24T19:57:42.603Z,4.56
2023-02-24T20:02:44.595Z,4.58
2023-02-24T20:08:06.690Z,4.61
2023-02-24T20:13:08.418Z,4.61
2023-02-24T20:18:47.788Z,4.62
2023-02-24T20:23:51.261Z,4.55
2023-02-24T20:28:53.336Z,4.53
2023-02-24T20:33:56.488Z,4.46
2023-02-24T20:38:59.831Z,4.41
2023-02-24T20:44:01.789Z,4.42
2023-02-24T20:49:07.389Z,4.41
2023-02-24T20:54:11.652Z,4.44
2023-02-24T20:59:22.907Z,4.44
2023-02-24T21:04:44.215Z,4.36
2023-02-24T21:09:46.154Z,4.20
2023-02-24T21:14:51.446Z,4.09
2023-02-24T21:19:53.034Z,3.93
2023-02-24T21:24:55.100Z,3.84
2023-02-24T21:29:57.115Z,3.81
2023-02-24T21:34:58.750Z,3.87
2023-02-24T21:40:03.523Z,3.91
2023-02-24T21:45:10.223Z,3.95
2023-02-24T21:50:13.778Z,4.02
2023-02-24T21:55:16.764Z,4.03
2023-02-24T22:00:19.726Z,3.99
2023-02-24T22:05:23.867Z,3.98
2023-02-24T22:10:28.609Z,4.01
2023-02-24T22:15:30.878Z,4.10
2023-02-24T22:20:32.471Z,4.18
2023-02-24T22:25:36.313Z,4.24
2023-02-24T22:30:38.187Z,4.27
2023-02-24T22:35:39.866Z,4.29
2023-02-24T22:40:41.611Z,4.26
2023-02-24T22:45:43.184Z,4.25
2023-02-24T22:50:45.107Z,4.23
2023-02-24T22:55:47.759Z,4.23
2023-02-24T23:00:50.576Z,4.27
2023-02-24T23:05:59.618Z,4.28
2023-02-24T23:11:07.766Z,4.29
2023-02-24T23:16:14.094Z,4.30
2023-02-24T23:21:17.372Z,4.25
2023-02-24T23:26:19.078Z,4.16
2023-02-24T23:31:22.322Z,4.13
2023-02-24T23:36:24.252Z,4.14
2023-02-24T23:41:26.400Z,4.15
2023-02-24T23:46:28.891Z,4.18
2023-02-24T23:51:47.061Z,4.21
2023-02-24T23:56:49.759Z,4.25
